Time;durP1;ratioP1;P1;durP2;ratioP2;P2;SDS_P1;SDS_P2;PMS_P1;PMS_P2;Temp;Humidity;BMP_temperature;BMP_pressure;BME280_temperature;BME280_humidity;BME280_pressure;Samples;Min_cycle;Max_cycle;Signal;HPM_P1;HPM_P2
2022/11/13 00:00:41;;;;;;;7.70;6.50;;;5.40;99.90;6.60;98192.00;;;;5044739;28;20202;-67
2022/11/13 00:03:30;;;;;;;10.43;5.47;;;5.40;99.90;6.80;98195.00;;;;5035592;28;20276;-67
2022/11/13 00:06:19;;;;;;;5.97;4.97;;;5.40;99.90;6.70;98201.00;;;;5050722;28;20197;-68
2022/11/13 00:09:11;;;;;;;9.07;5.40;;;5.40;99.90;6.80;98194.00;;;;5052895;28;20604;-68
2022/11/13 00:12:00;;;;;;;8.60;6.10;;;5.40;99.90;6.80;98185.00;;;;5052443;28;20189;-68
2022/11/13 00:14:50;;;;;;;11.70;6.03;;;5.50;99.90;6.60;98184.00;;;;5051401;28;20342;-68
2022/11/13 00:17:39;;;;;;;7.67;5.17;;;5.50;99.90;6.60;98195.00;;;;5052901;28;20205;-68
2022/11/13 00:20:27;;;;;;;6.63;4.80;;;5.50;99.90;6.20;98181.00;;;;5052319;28;20227;-67
2022/11/13 00:23:16;;;;;;;12.27;6.20;;;5.40;99.90;6.30;98174.00;;;;5052200;28;20209;-68
2022/11/13 00:26:07;;;;;;;5.83;5.23;;;5.30;99.90;6.60;98181.00;;;;5045261;28;20253;-67
2022/11/13 00:28:58;;;;;;;6.37;5.07;;;5.30;99.90;6.70;98175.00;;;;5036948;28;20212;-67
2022/11/13 00:31:48;;;;;;;7.27;5.17;;;5.40;99.90;6.80;98170.00;;;;5041327;28;20680;-67
2022/11/13 00:34:37;;;;;;;5.13;4.63;;;5.40;99.90;6.80;98181.00;;;;5043316;28;20287;-67
2022/11/13 00:37:41;;;;;;;9.03;5.57;;;5.50;99.90;6.70;98189.00;;;;5039815;28;20228;-68
2022/11/13 00:40:29;;;;;;;10.07;6.17;;;5.50;99.90;6.60;98184.00;;;;5045690;28;20574;-67
2022/11/13 00:43:18;;;;;;;6.90;5.40;;;5.50;99.90;6.50;98177.00;;;;5042962;28;20212;-67
2022/11/13 00:46:07;;;;;;;7.93;5.23;;;5.40;99.90;6.40;98172.00;;;;5044151;28;20216;-67
2022/11/13 00:48:57;;;;;;;7.07;4.90;;;5.30;99.90;6.50;98181.00;;;;5043013;28;20232;-67
2022/11/13 00:51:46;;;;;;;5.37;4.30;;;5.30;99.90;6.40;98169.00;;;;5045490;28;20193;-67
2022/11/13 00:54:35;;;;;;;7.67;4.17;;;5.20;99.90;6.40;98178.00;;;;5041727;28;20213;-67
2022/11/13 00:57:23;;;;;;;5.27;4.23;;;5.20;99.90;6.40;98181.00;;;;5044658;28;20209;-67
2022/11/13 01:00:13;;;;;;;5.83;4.70;;;5.20;99.90;6.40;98188.00;;;;5045775;28;20715;-68
2022/11/13 01:03:02;;;;;;;6.87;5.27;;;5.20;99.90;6.30;98183.00;;;;5041934;28;20638;-67
2022/11/13 01:05:52;;;;;;;7.33;5.70;;;5.20;99.90;6.30;98176.00;;;;5040484;28;20226;-68
2022/11/13 01:08:40;;;;;;;9.20;5.40;;;5.00;99.90;6.20;98169.00;;;;5036436;28;20217;-68
2022/11/13 01:11:31;;;;;;;7.67;4.73;;;5.10;99.90;6.10;98160.00;;;;5051972;28;20223;-68
2022/11/13 01:14:20;;;;;;;6.80;5.20;;;5.00;99.90;5.90;98163.00;;;;5040541;28;20224;-68
2022/11/13 01:17:08;;;;;;;4.23;3.83;;;4.90;99.90;5.50;98165.00;;;;5051481;28;20260;-67
2022/11/13 01:19:57;;;;;;;6.27;4.57;;;4.80;99.90;5.50;98162.00;;;;5043995;28;20294;-67
2022/11/13 01:22:47;;;;;;;6.27;4.20;;;4.70;99.90;5.40;98166.00;;;;5047337;28;20201;-68
2022/11/13 01:25:36;;;;;;;4.97;3.90;;;4.60;99.90;5.60;98168.00;;;;5036036;28;20639;-67
2022/11/13 01:28:25;;;;;;;6.63;4.63;;;4.60;99.90;5.60;98158.00;;;;5049146;28;20208;-67
2022/11/13 01:31:16;;;;;;;8.63;6.00;;;4.60;99.90;5.60;98156.00;;;;5050236;28;20694;-68
2022/11/13 01:34:05;;;;;;;5.40;4.70;;;4.40;99.90;5.70;98162.00;;;;5038189;28;20220;-67
2022/11/13 01:36:53;;;;;;;6.27;4.00;;;4.60;99.90;5.60;98163.00;;;;5037725;28;20203;-67
2022/11/13 01:39:43;;;;;;;5.87;3.40;;;4.60;99.90;6.00;98169.00;;;;5050400;28;20224;-67
2022/11/13 01:42:33;;;;;;;8.47;3.50;;;4.60;99.90;6.10;98165.00;;;;5043664;28;20220;-67
2022/11/13 01:46:06;;;;;;;5.17;4.07;;;4.70;99.90;6.10;98161.00;;;;5041409;28;20717;-67
2022/11/13 01:49:03;;;;;;;4.37;3.97;;;4.70;99.90;6.00;98165.00;;;;5042621;28;20243;-67
2022/11/13 01:51:56;;;;;;;4.97;3.73;;;4.80;99.90;5.90;98174.00;;;;5040020;28;20555;-67
2022/11/13 01:54:50;;;;;;;3.83;3.50;;;4.70;99.90;6.00;98171.00;;;;5047511;28;20600;-68
2022/11/13 01:57:41;;;;;;;4.80;3.70;;;5.50;99.90;6.00;98177.00;;;;5049349;28;20215;-67
2022/11/13 02:00:29;;;;;;;5.00;4.00;;;4.70;99.90;5.80;98174.00;;;;5049780;28;20228;-68
2022/11/13 02:03:18;;;;;;;4.30;3.30;;;4.70;99.90;5.90;98173.00;;;;5044800;28;20690;-68
2022/11/13 02:06:07;;;;;;;6.00;4.07;;;4.70;99.90;5.70;98169.00;;;;5042757;28;20227;-68
2022/11/13 02:08:56;;;;;;;8.33;4.33;;;4.60;99.90;5.80;98148.00;;;;5040432;28;20208;-68
2022/11/13 02:11:47;;;;;;;7.67;3.80;;;4.60;99.90;5.70;98149.00;;;;5049755;28;20243;-68
2022/11/13 02:14:38;;;;;;;5.73;4.00;;;4.60;99.90;5.80;98152.00;;;;5040856;28;20223;-68
2022/11/13 02:17:32;;;;;;;5.67;3.70;;;4.60;99.90;5.50;98152.00;;;;5044906;28;20290;-68
2022/11/13 02:20:28;;;;;;;4.47;4.07;;;4.50;99.90;5.30;98145.00;;;;5047750;28;20271;-68
2022/11/13 02:23:24;;;;;;;4.47;3.10;;;4.40;99.90;5.00;98127.00;;;;5043322;28;20700;-68
2022/11/13 02:26:15;;;;;;;4.53;3.40;;;4.30;99.90;5.00;98132.00;;;;5041223;28;20736;-68
2022/11/13 02:29:04;;;;;;;4.53;3.63;;;4.20;99.90;5.20;98144.00;;;;5049347;28;20205;-68
2022/11/13 02:31:53;;;;;;;8.33;4.03;;;4.20;99.90;5.20;98138.00;;;;5049846;28;20290;-68
2022/11/13 02:34:41;;;;;;;4.37;3.43;;;4.10;99.90;5.10;98131.00;;;;5040824;28;20260;-68
2022/11/13 02:37:30;;;;;;;4.37;3.70;;;4.10;99.90;5.10;98145.00;;;;5034440;28;20275;-68
2022/11/13 02:40:19;;;;;;;4.43;3.70;;;4.00;99.90;5.10;98127.00;;;;5037940;28;20300;-68
2022/11/13 02:43:09;;;;;;;5.90;3.57;;;4.00;99.90;5.10;98145.00;;;;5047264;28;20668;-68
2022/11/13 02:45:58;;;;;;;5.80;4.20;;;4.00;99.90;5.10;98147.00;;;;5048849;28;20436;-68
2022/11/13 02:48:47;;;;;;;3.93;3.53;;;3.90;99.90;5.20;98143.00;;;;5049816;28;20226;-68
2022/11/13 02:51:35;;;;;;;5.50;4.53;;;3.90;99.90;5.30;98147.00;;;;5040604;28;20702;-68
2022/11/13 02:54:24;;;;;;;4.20;3.20;;;4.00;99.90;5.00;98143.00;;;;5046593;28;21158;-68
2022/11/13 02:57:13;;;;;;;3.43;3.13;;;4.10;99.90;4.70;98139.00;;;;5050306;28;20266;-68
2022/11/13 03:00:05;;;;;;;4.70;2.40;;;3.90;99.90;4.40;98140.00;;;;5049683;28;20317;-68
2022/11/13 03:02:56;;;;;;;5.47;3.97;;;3.80;99.90;4.90;98142.00;;;;5041221;28;20427;-68
2022/11/13 03:05:49;;;;;;;4.23;3.60;;;3.80;99.90;5.10;98151.00;;;;5049001;28;20220;-68
2022/11/13 03:08:38;;;;;;;4.93;3.90;;;3.80;99.90;5.00;98135.00;;;;5031087;28;20197;-68
2022/11/13 03:11:26;;;;;;;6.40;4.13;;;3.90;99.90;5.00;98121.00;;;;5049233;28;20208;-68
2022/11/13 03:14:15;;;;;;;5.90;3.77;;;3.90;99.90;5.00;98129.00;;;;5049553;28;20278;-68
2022/11/13 03:17:05;;;;;;;3.83;2.93;;;3.90;99.90;5.30;98120.00;;;;5050112;28;20290;-68
2022/11/13 03:19:54;;;;;;;5.13;3.30;;;3.90;99.90;5.30;98120.00;;;;5049392;28;20287;-68
2022/11/13 03:22:42;;;;;;;4.00;3.57;;;4.00;99.90;5.20;98125.00;;;;5050059;28;20207;-68
2022/11/13 03:25:31;;;;;;;3.50;2.97;;;4.00;99.90;4.90;98123.00;;;;5045383;28;20260;-68
2022/11/13 03:28:20;;;;;;;2.90;2.50;;;4.00;99.90;4.60;98120.00;;;;5037271;28;20213;-68
2022/11/13 03:31:09;;;;;;;3.47;2.70;;;4.00;99.90;4.50;98110.00;;;;5048811;28;20208;-68
2022/11/13 03:33:59;;;;;;;3.27;2.97;;;3.70;99.90;4.70;98099.00;;;;5049889;28;20224;-68
2022/11/13 03:36:47;;;;;;;8.93;3.03;;;3.80;99.90;4.90;98094.00;;;;5048542;28;20625;-68
2022/11/13 03:39:36;;;;;;;3.50;3.20;;;3.70;99.90;4.90;98089.00;;;;5047432;28;20609;-67
2022/11/13 03:42:25;;;;;;;3.60;2.90;;;3.70;99.90;5.00;98096.00;;;;5041785;28;20416;-68
2022/11/13 03:45:14;;;;;;;3.00;2.80;;;3.70;99.90;4.90;98086.00;;;;5049209;28;20224;-68
2022/11/13 03:48:02;;;;;;;4.07;2.77;;;3.70;99.90;4.70;98069.00;;;;5053280;28;20231;-68
2022/11/13 03:50:55;;;;;;;6.87;2.77;;;3.70;99.90;4.80;98073.00;;;;5053004;28;20710;-68
2022/11/13 03:53:43;;;;;;;3.63;2.90;;;3.60;99.90;4.70;98070.00;;;;5053875;28;20200;-68
2022/11/13 03:56:32;;;;;;;2.27;2.07;;;3.60;99.90;4.70;98082.00;;;;5052692;28;20254;-68
2022/11/13 03:59:21;;;;;;;3.53;3.23;;;3.60;99.90;4.60;98071.00;;;;5051713;28;20209;-68
2022/11/13 04:02:09;;;;;;;5.23;3.30;;;3.50;99.90;4.60;98054.00;;;;5043808;28;20571;-68
2022/11/13 04:04:58;;;;;;;5.37;3.73;;;3.50;99.90;4.50;98042.00;;;;5042667;28;20540;-68
2022/11/13 04:07:48;;;;;;;3.07;2.83;;;3.40;99.90;4.20;98058.00;;;;5053109;28;20438;-68
2022/11/13 04:10:37;;;;;;;4.43;2.97;;;3.40;99.90;4.40;98064.00;;;;5052842;28;20234;-67
2022/11/13 04:13:26;;;;;;;3.23;2.93;;;3.30;99.90;4.30;98069.00;;;;5040776;28;20432;-68
2022/11/13 04:16:14;;;;;;;6.57;2.93;;;3.30;99.90;4.20;98043.00;;;;5041917;28;20485;-68
2022/11/13 04:19:03;;;;;;;4.43;2.77;;;3.30;99.90;4.10;98041.00;;;;5051823;28;20436;-68
2022/11/13 04:21:52;;;;;;;3.20;2.90;;;3.20;99.90;4.10;98043.00;;;;5050472;28;20493;-68
2022/11/13 04:24:42;;;;;;;3.33;3.03;;;3.10;99.90;4.00;98034.00;;;;5052880;28;20899;-68
2022/11/13 04:27:31;;;;;;;4.20;3.20;;;;;4.10;98048.00;;;;5051374;28;20481;-68
2022/11/13 04:30:20;;;;;;;3.07;2.43;;;3.00;99.90;3.90;98038.00;;;;5050839;28;20463;-68
2022/11/13 04:33:08;;;;;;;4.03;2.43;;;3.00;99.90;3.60;98016.00;;;;5045155;28;20483;-68
2022/11/13 04:35:57;;;;;;;5.13;3.17;;;2.90;99.90;3.50;98027.00;;;;5044736;28;20509;-68
2022/11/13 04:38:46;;;;;;;5.37;2.50;;;2.80;99.90;3.40;98027.00;;;;5052650;28;20440;-68
2022/11/13 04:44:42;;;;;;;4.00;3.07;;;2.80;99.90;3.70;98027.00;;;;5042959;28;20443;-67
2022/11/13 04:47:31;;;;;;;4.77;3.37;;;2.70;99.90;3.70;98023.00;;;;5043136;28;20422;-68
2022/11/13 04:50:20;;;;;;;4.20;3.10;;;2.70;99.90;3.70;98011.00;;;;5041264;28;20446;-68
2022/11/13 04:53:09;;;;;;;3.40;2.90;;;2.60;99.90;3.50;98009.00;;;;5051016;28;20489;-68
2022/11/13 04:55:57;;;;;;;5.77;3.17;;;;;3.40;98010.00;;;;5052653;28;20481;-68
2022/11/13 04:58:48;;;;;;;3.07;2.60;;;2.50;99.90;3.30;98003.00;;;;5050416;28;20426;-68
2022/11/13 05:01:36;;;;;;;3.37;2.60;;;2.50;99.90;2.90;98012.00;;;;5040962;28;20579;-68
2022/11/13 05:04:26;;;;;;;3.17;2.87;;;;;3.00;98012.00;;;;5048659;28;20451;-68
2022/11/13 05:07:14;;;;;;;3.60;3.27;;;2.30;99.90;2.80;98018.00;;;;5051788;28;20430;-68
2022/11/13 05:10:04;;;;;;;4.47;2.70;;;2.20;99.90;3.00;98023.00;;;;5051192;28;20428;-68
2022/11/13 05:12:56;;;;;;;3.43;2.60;;;2.10;99.90;3.00;98022.00;;;;5039325;28;20428;-68
2022/11/13 05:15:46;;;;;;;7.57;3.57;;;2.10;99.90;3.10;98022.00;;;;5047409;28;20439;-68
2022/11/13 05:18:37;;;;;;;4.97;3.20;;;2.00;99.90;3.20;98030.00;;;;5050810;28;20421;-68
2022/11/13 05:21:26;;;;;;;5.93;3.77;;;2.10;99.90;3.10;98028.00;;;;5050049;28;20478;-68
2022/11/13 05:24:14;;;;;;;4.80;3.60;;;2.10;99.90;3.20;98017.00;;;;5050880;28;20435;-68
2022/11/13 05:27:03;;;;;;;8.37;3.70;;;2.20;99.90;3.10;98032.00;;;;5040556;28;20437;-68
2022/11/13 05:29:52;;;;;;;4.83;3.77;;;2.20;99.90;2.60;98043.00;;;;5051211;28;20429;-69
2022/11/13 05:32:42;;;;;;;3.77;2.97;;;2.00;99.90;2.50;98053.00;;;;5049644;28;20431;-68
2022/11/13 05:35:31;;;;;;;4.47;2.83;;;1.90;99.90;2.90;98080.00;;;;5044028;28;20435;-68
2022/11/13 05:38:19;;;;;;;3.80;2.63;;;2.00;99.90;3.10;98073.00;;;;5042570;28;20423;-68
2022/11/13 05:41:11;;;;;;;4.50;4.10;;;1.90;99.90;3.10;98080.00;;;;5049936;28;20509;-69
2022/11/13 05:44:00;;;;;;;4.47;3.87;;;2.00;99.90;3.30;98073.00;;;;5034291;28;20420;-69
2022/11/13 05:46:49;;;;;;;4.33;3.90;;;2.00;99.90;2.80;98074.00;;;;5046041;28;20423;-69
2022/11/13 05:49:39;;;;;;;3.40;3.07;;;2.10;99.90;2.80;98092.00;;;;5050804;28;20549;-68
2022/11/13 05:52:27;;;;;;;6.37;3.77;;;2.00;99.90;2.70;98090.00;;;;5035836;28;20446;-68
2022/11/13 05:55:16;;;;;;;5.23;3.20;;;2.00;99.90;2.80;98094.00;;;;5039151;28;20867;-69
2022/11/13 05:58:06;;;;;;;4.30;3.63;;;2.00;99.90;3.00;98092.00;;;;5041561;28;20498;-69
2022/11/13 06:01:05;;;;;;;4.43;4.07;;;2.10;99.90;3.00;98106.00;;;;5042936;28;20993;-68
2022/11/13 06:03:55;;;;;;;3.73;3.43;;;2.00;99.90;2.90;98106.00;;;;5051442;28;20465;-68
2022/11/13 06:06:45;;;;;;;5.17;4.57;;;2.10;99.90;3.20;98113.00;;;;5049621;28;20528;-68
2022/11/13 06:09:34;;;;;;;7.33;4.27;;;;;3.40;98105.00;;;;5051183;28;20419;-68
2022/11/13 06:12:23;;;;;;;4.43;3.77;;;2.30;99.90;3.60;98108.00;;;;5050422;28;20949;-68
2022/11/13 06:15:12;;;;;;;6.13;4.50;;;2.40;99.90;3.70;98122.00;;;;5051262;28;20529;-68
2022/11/13 06:18:00;;;;;;;4.43;4.03;;;2.50;99.90;3.60;98120.00;;;;5038997;28;20801;-68
2022/11/13 06:20:49;;;;;;;10.03;7.23;;;4.60;99.90;3.70;98129.00;;;;5038701;28;20462;-68
2022/11/13 06:23:40;;;;;;;6.63;5.10;;;2.60;99.90;3.60;98134.00;;;;5040089;28;20420;-68
2022/11/13 06:26:32;;;;;;;7.17;6.13;;;2.60;99.90;3.40;98127.00;;;;5039551;28;20959;-68
2022/11/13 06:29:22;;;;;;;9.93;7.73;;;;;3.50;98119.00;;;;5050474;28;20423;-68
2022/11/13 06:32:10;;;;;;;6.97;4.83;;;2.70;99.90;3.60;98119.00;;;;5051020;28;20429;-68
2022/11/13 06:35:00;;;;;;;5.80;4.77;;;2.70;99.90;3.90;98123.00;;;;5040000;28;20463;-68
2022/11/13 06:37:49;;;;;;;8.23;4.40;;;2.70;99.90;3.80;98127.00;;;;5050616;28;20423;-68
2022/11/13 06:40:40;;;;;;;8.97;5.33;;;2.80;99.90;3.80;98131.00;;;;5050387;28;20478;-68
2022/11/13 06:43:29;;;;;;;9.13;7.13;;;2.80;99.90;3.90;98107.00;;;;5043079;28;20428;-68
2022/11/13 06:46:20;;;;;;;8.43;6.03;;;2.90;99.90;4.00;98120.00;;;;5046159;28;20447;-68
2022/11/13 06:49:09;;;;;;;7.80;5.23;;;2.90;99.90;4.00;98120.00;;;;5048946;28;20447;-68
2022/11/13 06:51:58;;;;;;;6.73;5.13;;;3.00;99.90;4.00;98109.00;;;;5040456;28;20960;-68
2022/11/13 06:54:46;;;;;;;9.80;6.23;;;3.20;99.90;4.20;98110.00;;;;5038454;28;20451;-67
2022/11/13 06:57:36;;;;;;;7.67;5.93;;;4.20;99.90;4.50;98122.00;;;;5046616;28;20520;-68
2022/11/13 07:00:25;;;;;;;9.70;7.00;;;3.20;99.90;4.50;98118.00;;;;5040369;28;20441;-68
2022/11/13 07:03:17;;;;;;;8.90;5.17;;;3.40;99.90;4.80;98115.00;;;;5038116;28;20430;-68
2022/11/13 07:06:08;;;;;;;7.30;5.17;;;3.40;99.90;4.90;98113.00;;;;5040040;28;20504;-67
2022/11/13 07:08:57;;;;;;;4.90;4.43;;;3.50;99.90;5.00;98105.00;;;;5046575;28;20839;-68
2022/11/13 07:11:45;;;;;;;6.83;5.33;;;3.60;99.90;5.10;98121.00;;;;5049127;28;21036;-68
2022/11/13 07:14:35;;;;;;;6.67;4.57;;;3.70;99.90;5.10;98125.00;;;;5035548;28;20825;-68
2022/11/13 07:17:24;;;;;;;5.17;3.73;;;3.70;99.90;5.10;98129.00;;;;5046230;28;20602;-68
2022/11/13 07:20:13;;;;;;;4.87;3.93;;;3.80;99.90;5.00;98115.00;;;;5041516;28;20540;-68
2022/11/13 07:23:05;;;;;;;7.63;4.40;;;3.80;99.90;5.00;98119.00;;;;5047328;28;20220;-68
2022/11/13 07:25:54;;;;;;;5.73;4.40;;;3.90;99.90;5.20;98118.00;;;;5044714;28;20224;-67
2022/11/13 07:28:43;;;;;;;4.53;4.10;;;3.90;99.90;5.20;98116.00;;;;5042669;28;20196;-68
2022/11/13 07:31:33;;;;;;;5.67;4.57;;;4.00;99.90;5.20;98121.00;;;;5044810;28;20635;-68
2022/11/13 07:34:22;;;;;;;5.40;3.90;;;4.00;99.90;5.40;98115.00;;;;5046739;28;20463;-68
2022/11/13 07:37:10;;;;;;;5.17;4.57;;;4.00;99.90;5.40;98121.00;;;;5044795;28;20258;-68
2022/11/13 07:39:59;;;;;;;6.93;6.23;;;4.10;99.90;5.50;98130.00;;;;5051495;28;20427;-68
2022/11/13 07:42:48;;;;;;;6.27;5.30;;;4.20;99.90;5.40;98120.00;;;;5045876;28;20235;-68
2022/11/13 07:45:37;;;;;;;7.47;6.20;;;4.20;99.90;5.50;98126.00;;;;5039570;28;20432;-68
2022/11/13 07:48:27;;;;;;;7.57;6.40;;;4.30;99.90;5.60;98122.00;;;;5040654;28;20212;-67
2022/11/13 07:51:16;;;;;;;9.40;6.20;;;4.30;99.90;5.70;98121.00;;;;5052350;28;20200;-68
2022/11/13 07:54:11;;;;;;;6.13;5.27;;;4.30;99.90;5.90;98120.00;;;;5052388;28;20192;-68
2022/11/13 07:57:00;;;;;;;6.13;5.57;;;4.50;99.90;6.00;98126.00;;;;5043183;28;20287;-68
2022/11/13 07:59:48;;;;;;;8.43;5.73;;;4.60;99.90;6.10;98131.00;;;;5043080;28;20204;-68
2022/11/13 08:02:37;;;;;;;7.77;6.20;;;4.70;99.90;6.00;98123.00;;;;5047195;28;20311;-68
2022/11/13 08:05:27;;;;;;;7.87;5.90;;;4.70;99.90;6.10;98136.00;;;;5046217;28;20328;-68
2022/11/13 08:08:16;;;;;;;6.53;5.63;;;4.80;99.90;6.10;98126.00;;;;5044441;28;20620;-68
2022/11/13 08:11:06;;;;;;;12.20;8.83;;;4.80;99.90;6.30;98127.00;;;;5041043;28;20217;-68
2022/11/13 08:13:55;;;;;;;8.50;5.97;;;4.90;99.90;6.40;98127.00;;;;5043353;28;20185;-68
2022/11/13 08:16:43;;;;;;;10.53;8.77;;;5.00;99.90;6.40;98106.00;;;;5045058;28;20681;-68
2022/11/13 08:19:32;;;;;;;8.43;6.00;;;5.10;99.90;6.10;98113.00;;;;5053271;28;20247;-68
2022/11/13 08:22:22;;;;;;;6.63;6.03;;;5.10;99.90;6.50;98121.00;;;;5049068;28;20270;-68
2022/11/13 08:25:11;;;;;;;6.80;5.37;;;5.20;99.90;6.40;98126.00;;;;5051153;28;20704;-68
2022/11/13 08:28:00;;;;;;;7.10;4.70;;;5.20;99.90;7.00;98131.00;;;;5045296;28;20552;-68
2022/11/13 08:30:49;;;;;;;5.13;4.57;;;5.30;99.90;7.30;98136.00;;;;5039101;28;20251;-68
2022/11/13 08:33:38;;;;;;;6.57;5.63;;;5.50;99.90;7.50;98130.00;;;;5039465;28;20205;-68
2022/11/13 08:36:26;;;;;;;5.80;5.10;;;5.70;99.90;7.50;98146.00;;;;5050732;28;20204;-68
2022/11/13 08:39:17;;;;;;;8.07;6.27;;;5.80;99.90;7.60;98137.00;;;;5044762;28;20363;-68
2022/11/13 08:42:06;;;;;;;7.73;6.00;;;6.00;99.90;7.90;98145.00;;;;5044778;28;20622;-68
2022/11/13 08:44:54;;;;;;;7.53;6.77;;;6.20;99.90;7.70;98145.00;;;;5042979;28;20221;-68
2022/11/13 08:47:43;;;;;;;9.23;7.27;;;6.30;99.90;7.70;98152.00;;;;5043889;28;20756;-68
2022/11/13 08:50:33;;;;;;;9.77;8.17;;;6.40;99.90;8.10;98145.00;;;;5042841;28;20569;-68
2022/11/13 08:53:23;;;;;;;13.87;8.77;;;6.60;99.90;8.20;98148.00;;;;5041521;28;20220;-68
2022/11/13 08:56:13;;;;;;;9.80;7.80;;;6.70;99.90;8.60;98143.00;;;;5042495;28;20224;-68
2022/11/13 08:59:02;;;;;;;12.30;8.30;;;6.80;99.90;8.80;98142.00;;;;5038045;28;20217;-68
2022/11/13 09:01:57;;;;;;;10.97;8.03;;;7.00;99.90;8.80;98142.00;;;;5037535;28;20221;-67
2022/11/13 09:04:45;;;;;;;10.93;7.90;;;7.20;99.90;9.10;98155.00;;;;5037374;28;20229;-68
2022/11/13 09:07:34;;;;;;;10.17;8.27;;;7.40;99.90;9.40;98145.00;;;;5039643;28;20236;-68
2022/11/13 09:10:23;;;;;;;9.83;8.13;;;7.50;99.90;9.50;98152.00;;;;5039402;28;20680;-68
2022/11/13 09:13:13;;;;;;;17.70;13.87;;;7.70;99.90;9.60;98148.00;;;;5044249;28;20216;-68
2022/11/13 09:16:03;;;;;;;12.43;9.57;;;7.80;99.90;9.80;98153.00;;;;5038682;28;20216;-67
2022/11/13 09:18:52;;;;;;;10.63;8.40;;;8.00;99.90;9.70;98133.00;;;;5041623;28;20217;-69
2022/11/13 09:21:41;;;;;;;9.37;8.17;;;8.10;99.90;9.80;98135.00;;;;5041745;28;20245;-69
2022/11/13 09:24:29;;;;;;;9.33;7.83;;;8.20;99.90;9.80;98119.00;;;;5041208;28;20224;-68
2022/11/13 09:27:18;;;;;;;9.73;7.93;;;8.30;99.90;9.20;98109.00;;;;5040294;28;20641;-68
2022/11/13 09:30:10;;;;;;;12.40;8.17;;;8.40;99.90;9.10;98108.00;;;;5038655;28;20582;-68
2022/11/13 09:33:00;;;;;;;10.63;7.93;;;8.30;99.90;9.30;98108.00;;;;5037306;28;20204;-68
2022/11/13 09:35:49;;;;;;;14.70;11.40;;;8.30;99.90;9.20;98100.00;;;;5039386;28;20724;-68
2022/11/13 09:38:38;;;;;;;16.70;12.30;;;8.30;99.90;9.30;98101.00;;;;5043683;28;20213;-68
2022/11/13 09:41:32;;;;;;;12.77;9.80;;;8.30;99.90;9.50;98098.00;;;;5040669;28;20243;-68
2022/11/13 09:44:34;;;;;;;14.17;10.23;;;8.30;99.90;9.50;98082.00;;;;5042832;28;20256;-68
2022/11/13 09:47:29;;;;;;;13.87;8.63;;;8.30;99.90;10.20;98089.00;;;;5038371;28;20688;-68
2022/11/13 09:50:23;;;;;;;15.87;8.97;;;7.50;99.90;10.40;98083.00;;;;5041364;28;20675;-68
2022/11/13 09:53:13;;;;;;;12.33;8.73;;;8.70;99.90;11.20;98087.00;;;;5043251;28;20198;-68
2022/11/13 09:56:16;;;;;;;11.50;8.70;;;9.00;99.90;11.70;98086.00;;;;5048228;28;20231;-68
2022/11/13 09:59:15;;;;;;;13.00;9.87;;;9.40;99.90;11.70;98084.00;;;;5039973;28;20209;-68
2022/11/13 10:02:18;;;;;;;12.87;8.70;;;9.70;99.90;11.80;98072.00;;;;5042083;28;20711;-68
2022/11/13 10:05:21;;;;;;;13.20;9.43;;;10.00;99.90;11.80;98054.00;;;;5042383;28;20224;-68
2022/11/13 10:08:16;;;;;;;14.67;10.77;;;10.20;99.90;12.50;98047.00;;;;5034553;28;20243;-68
2022/11/13 10:11:13;;;;;;;10.93;8.77;;;10.50;99.90;13.10;98048.00;;;;5042936;28;20743;-68
2022/11/13 10:14:07;;;;;;;13.57;9.10;;;11.00;99.90;13.80;98040.00;;;;5041241;28;20207;-68
2022/11/13 10:17:01;;;;;;;11.83;10.00;;;11.90;99.90;14.50;98042.00;;;;5039889;28;20735;-68
2022/11/13 10:19:57;;;;;;;13.83;10.13;;;13.10;99.90;15.10;98032.00;;;;5046432;28;20691;-67
2022/11/13 10:22:51;;;;;;;12.83;9.27;;;14.00;99.90;15.20;98031.00;;;;5050164;28;20252;-68
2022/11/13 10:25:41;;;;;;;10.97;8.90;;;14.80;99.90;16.40;98029.00;;;;5045825;28;20258;-67
2022/11/13 10:28:30;;;;;;;12.93;8.67;;;15.50;99.90;17.00;98015.00;;;;5048176;28;20224;-67
2022/11/13 10:31:44;;;;;;;14.90;10.53;;;16.30;99.90;16.80;98040.00;;;;5048283;28;20212;-67
2022/11/13 10:34:33;;;;;;;16.33;10.60;;;16.70;99.90;16.80;98040.00;;;;5033986;28;20217;-68
2022/11/13 10:37:45;;;;;;;13.30;11.13;;;16.80;99.90;17.30;98032.00;;;;5050445;28;20242;-67
2022/11/13 10:40:38;;;;;;;12.97;9.97;;;17.10;99.90;16.70;98009.00;;;;5049898;28;20274;-68
2022/11/13 10:43:27;;;;;;;14.47;10.20;;;17.00;99.90;17.40;97990.00;;;;5046915;28;20271;-68
2022/11/13 10:46:25;;;;;;;13.60;11.30;;;17.20;99.90;17.50;97993.00;;;;5041060;28;20638;-68
2022/11/13 10:49:19;;;;;;;15.17;9.90;;;17.30;99.40;17.90;97990.00;;;;5049155;28;20197;-68
2022/11/13 10:52:19;;;;;;;13.40;9.27;;;17.40;98.10;17.90;97990.00;;;;5049597;28;20251;-68
2022/11/13 10:55:20;;;;;;;12.20;8.00;;;17.50;97.40;16.40;97993.00;;;;5033280;28;20253;-68
2022/11/13 10:58:17;;;;;;;12.97;8.27;;;17.30;96.00;16.70;97980.00;;;;5045039;28;20227;-68
2022/11/13 11:01:15;;;;;;;10.57;8.40;;;16.90;96.40;17.50;97992.00;;;;5049238;28;20258;-68
2022/11/13 11:04:04;;;;;;;13.83;7.80;;;16.90;96.00;16.70;97986.00;;;;5039039;28;21026;-68
2022/11/13 11:06:55;;;;;;;8.77;6.90;;;16.90;95.50;16.80;97975.00;;;;5035786;28;20221;-68
2022/11/13 11:10:04;;;;;;;10.03;6.60;;;16.80;95.40;17.10;97991.00;;;;5034146;28;20193;-68
2022/11/13 11:12:54;;;;;;;8.38;6.82;;;16.90;94.50;17.70;97991.00;;;;5039528;28;20781;-68
2022/11/13 11:15:49;;;;;;;10.85;8.10;;;17.00;94.30;18.60;97991.00;;;;5035166;28;20485;-68
2022/11/13 11:18:43;;;;;;;8.27;6.77;;;17.10;94.20;18.50;97986.00;;;;5038596;28;20734;-68
2022/11/13 11:21:35;;;;;;;9.73;6.77;;;17.40;92.90;19.20;97986.00;;;;5043667;28;20603;-68
2022/11/13 11:24:29;;;;;;;7.37;6.63;;;17.60;93.60;19.20;97983.00;;;;5046693;28;20303;-68
2022/11/13 11:27:25;;;;;;;8.27;7.20;;;17.70;92.80;20.00;97984.00;;;;5039378;28;20247;-68
2022/11/13 11:30:21;;;;;;;12.23;8.77;;;18.00;93.70;20.00;97959.00;;;;5036409;28;20745;-68
2022/11/13 11:33:18;;;;;;;9.90;8.37;;;18.30;92.70;19.90;97957.00;;;;5045880;28;20281;-68
2022/11/13 11:36:18;;;;;;;12.33;8.33;;;18.50;91.60;20.10;97957.00;;;;5039772;28;20270;-68
2022/11/13 11:39:26;;;;;;;10.27;8.37;;;18.50;92.00;19.80;97947.00;;;;5044499;28;20266;-68
2022/11/13 11:42:27;;;;;;;10.07;7.87;;;18.50;90.90;19.30;97956.00;;;;5045511;28;20230;-68
2022/11/13 11:45:26;;;;;;;11.13;7.90;;;18.50;90.40;19.10;97942.00;;;;5039812;28;20228;-68
2022/11/13 11:48:22;;;;;;;8.63;7.23;;;18.40;89.40;17.70;97939.00;;;;5038367;28;20810;-68
2022/11/13 11:51:24;;;;;;;9.20;7.13;;;18.00;86.60;19.00;97935.00;;;;5047859;28;20200;-68
2022/11/13 11:54:27;;;;;;;10.30;7.00;;;17.70;88.50;19.70;97937.00;;;;5042016;28;20671;-68
2022/11/13 11:57:35;;;;;;;10.13;7.00;;;17.80;88.80;20.60;97930.00;;;;5030441;28;20290;-68
2022/11/13 12:00:24;;;;;;;8.97;6.40;;;18.10;90.00;20.60;97931.00;;;;5035291;28;20266;-68
2022/11/13 12:04:06;;;;;;;8.53;6.70;;;18.40;87.60;21.10;97934.00;;;;5039627;28;20223;-68
2022/11/13 12:07:11;;;;;;;7.77;6.13;;;18.80;86.60;17.90;97911.00;;;;4989567;28;20234;-73
2022/11/13 12:10:14;;;;;;;7.50;6.30;;;18.60;82.70;19.80;97915.00;;;;5044918;28;20208;-67
2022/11/13 12:13:22;;;;;;;10.60;7.87;;;18.30;84.60;18.90;97916.00;;;;5042068;28;20550;-68
2022/11/13 12:16:19;;;;;;;8.60;6.77;;;18.20;83.10;19.00;97908.00;;;;5041958;28;20640;-67
2022/11/13 12:19:25;;;;;;;9.73;8.23;;;18.20;84.50;17.40;97900.00;;;;5050663;28;20250;-69
2022/11/13 12:22:23;;;;;;;7.90;7.10;;;17.80;83.70;20.40;97904.00;;;;5051117;28;20239;-67
2022/11/13 12:25:25;;;;;;;8.57;7.53;;;17.90;86.50;21.40;97907.00;;;;5051311;28;20232;-68
2022/11/13 12:28:21;;;;;;;8.63;7.53;;;18.60;85.60;21.70;97906.00;;;;5041056;28;20224;-68
2022/11/13 12:31:27;;;;;;;10.10;8.37;;;19.00;83.30;22.10;97900.00;;;;5038563;28;20681;-68
2022/11/13 12:34:25;;;;;;;10.03;7.93;;;19.50;82.40;21.90;97901.00;;;;5041481;28;20232;-68
2022/11/13 12:37:25;;;;;;;9.53;7.50;;;19.90;79.40;22.80;97900.00;;;;5041153;28;20204;-68
2022/11/13 12:40:27;;;;;;;8.77;7.37;;;20.30;78.90;22.80;97887.00;;;;5040882;28;20259;-68
2022/11/13 12:43:41;;;;;;;9.03;7.97;;;20.70;75.80;20.90;97880.00;;;;5033988;28;20214;-68
2022/11/13 12:46:36;;;;;;;9.10;8.20;;;20.70;73.50;19.00;97869.00;;;;5042542;28;20410;-68
2022/11/13 12:49:32;;;;;;;9.95;8.95;;;20.10;74.70;19.30;97862.00;;;;5033700;28;20407;-69
2022/11/13 12:52:23;;;;;;;10.95;8.95;;;19.50;75.90;20.70;97867.00;;;;5039228;28;20463;-70
2022/11/13 12:55:27;;;;;;;9.63;7.90;;;19.50;76.10;21.00;97866.00;;;;5038092;28;20222;-69
2022/11/13 12:58:22;;;;;;;9.10;7.47;;;19.60;76.00;19.40;97857.00;;;;5038575;28;20250;-69